Terminal Aerodrome Forecast
Issued by NWS

Home | Current Version | Previous Version | Text Only | Print | Product List | Glossary On
Versions: 1 2 3 4 5 6 7 8 9 10 11 12 13 14 15 16 17 18 19 20 21 22 23 24 25 26 27 28 29 30 31 32 33 34
000
FTAK31 PAJN 210535
TAFAPG
TAF
PAPG 210535Z 2106/2206 VRB02KT 6SM -SHRA BR SCT007 OVC015
      TEMPO 2106/2110 4SM -SHSNRA BR BKN007
     FM211200 VRB04KT 6SM -SHRA BR BKN015 OVC025
     FM220100 00000KT 4SM -SNRA BR OVC015
      AMD LTD TO CLD VIS AND WIND 2106/2115=

USA.gov is the U.S. government's official web portal to all federal, state and local government web resources and services.